ADDS METAR Data INFO
IDs: Format: Raw Decoded Include TAF

Data at: 0337 UTC 19 Feb 2018

KDTO 190253Z 18009KT 8SM OVC007 17/16 A2989 RMK AO2 SLP118 T01670161 51003
KDTO 190153Z 18010KT 10SM OVC008 17/16 A2988 RMK AO2 SLP117 T01670156
KDTO 190053Z 18011KT 10SM OVC009 16/16 A2989 RMK AO2 SLP118 T01610156
KDTO 190028Z 17013KT 10SM OVC009 16/16 A2989 RMK AO2 T01610156
KDTO 182353Z 17012KT 10SM OVC012 17/15 A2988 RMK AO2 SLP115 60002 T01670150 10167 20100 56007
KDTO 182253Z 17007KT 10SM OVC014 16/13 A2989 RMK AO2 SLP117 T01560133
KDTO 182224Z 18007KT 10SM OVC010 15/13 A2989 RMK AO2 T01500133
KDTO 182153Z 17007KT 10SM OVC008 14/13 A2989 RMK AO2 SLP121 T01440133
KDTO 182053Z 14007KT 8SM OVC005 13/12 A2990 RMK AO2 SLP124 60002 T01280122 58051
KDTO 181953Z 15010KT 5SM BR OVC005 12/11 A2996 RMK AO2 SLP144 T01170111
KDTO 181853Z 14011KT 5SM BR OVC005 11/11 A3000 RMK AO2 RAE29 SLP158 P0002 T01110111
KDTO 181835Z 15010KT 5SM BR OVC005 11/11 A3001 RMK AO2 RAE29 P0002 T01060106
KDTO 181802Z 13017G23KT 3SM RA BR OVC004 10/10 A3001 RMK AO2 PRESFR P0002 T01000100
KDTO 181753Z 14015KT 6SM -RA BR OVC005 11/09 A3006 RMK AO2 RAB53 PRESFR SLP177 P0000 60000 T01060094 10106 20067 58024
KDTO 181653Z 18009KT 8SM OVC005 10/09 A3012 RMK AO2 SLP198 T01000094
KDTO 181648Z 17008KT 8SM OVC005 11/09 A3012 RMK AO2
KDTO 181611Z 16009KT 6SM BR OVC004 10/09 A3012 RMK AO2 T01000089
KDTO 181553Z 16011KT 6SM BR OVC005 09/08 A3013 RMK AO2 SLP201 T00890083
KDTO 181453Z 15011KT 8SM OVC005 08/08 A3014 RMK AO2 SLP205 T00830078 53003
KDTO 181353Z 13008KT 9SM OVC008 08/07 A3013 RMK AO2 SLP201 T00830072
KDTO 181303Z 12007KT 10SM BKN009 OVC013 08/07 A3013 RMK AO2 T00780072
KDTO 181253Z 11004KT 10SM OVC013 08/07 A3013 RMK AO2 SLP202 T00780072
KDTO 181251Z 11004KT 10SM OVC013 08/07 A3013 RMK AO2
KDTO 181237Z 12003KT 10SM BKN015 08/07 A3013 RMK AO2 T00780072
KDTO 181211Z 13004KT 10SM SCT015 07/07 A3014 RMK AO2 T00670067
KDTO 181153Z 13004KT 10SM OVC015 07/07 A3014 RMK AO2 SLP203 70027 T00720072 10083 20039 56008
KDTO 181053Z AUTO 12005KT 10SM OVC018 08/07 A3014 RMK AO2 SLPNO T00780072
KDTO 181028Z AUTO 11004KT 9SM BKN021 04/04 A3015 RMK AO2 T00440044
KDTO 180953Z AUTO 12003KT 10SM CLR 04/04 A3015 RMK AO2 SLP207 T00440039
KDTO 180853Z AUTO 00000KT 10SM CLR 06/06 A3016 RMK AO2 SLP210 T00610056 58005
KDTO 180753Z AUTO 00000KT 10SM CLR 07/06 A3017 RMK AO2 SLP213 T00670061
KDTO 180653Z AUTO 00000KT 10SM CLR 05/05 A3017 RMK AO2 SLP213 T00500050
KDTO 180553Z AUTO 00000KT 10SM CLR 06/06 A3018 RMK AO2 SLP215 T00560056 10150 20056 402670044 58003
KDTO 180453Z AUTO 00000KT 10SM CLR 08/06 A3019 RMK AO2 SLP219 T00780061
KDTO 180353Z 00000KT 10SM CLR 08/06 A3019 RMK AO2 SLP222 T00830061
KDTO 180253Z 00000KT 10SM CLR 11/07 A3019 RMK AO2 SLP221 T01110067 50012
KDTO 180153Z 10003KT 10SM CLR 13/06 A3019 RMK AO2 SLP220 T01280061
KDTO 180053Z 11004KT 10SM CLR 13/06 A3017 RMK AO2 SLP214 T01280061
KDTO 172353Z 04004KT 10SM CLR 15/06 A3015 RMK AO2 SLP209 T01500061 10267 20150 51014
KDTO 172320Z 05007KT 10SM CLR 17/06 A3014 RMK AO2 T01670061 $
KDTO 172253Z 05008KT 10SM CLR A3013 RMK AO2 SLPNO $
KDTO 172153Z 02012KT 10SM CLR 20/07 A3013 RMK AO2 SLP197 T02000067
KDTO 172053Z 36008KT 10SM CLR 23/07 A3011 RMK AO2 SLP190 T02280067 55002
KDTO 171953Z 33011KT 10SM CLR 25/08 A3010 RMK AO2 SLP186 T02500083
KDTO 171853Z 29007KT 10SM CLR 24/08 A3011 RMK AO2 SLP191 T02390083
KDTO 171753Z 25005KT 10SM CLR 26/09 A3011 RMK AO2 SLP193 60027 T02560089 10256 20044 58004
KDTO 171653Z 18004KT 10SM SCT009 20/07 A3013 RMK AO2 SLP198 T02000072
KDTO 171644Z 00000KT 10SM BKN009 16/07 A3013 RMK AO2 T01610067
KDTO 171623Z 00000KT 10SM FEW008 SCT090 16/06 A3013 RMK AO2 T01560061
KDTO 171553Z 00000KT 10SM SCT060 13/06 A3013 RMK AO2 RAB1454E10 SLP199 P0000 T01330056
KDTO 171546Z 19004KT 10SM FEW008 BKN060 11/06 A3012 RMK AO2 RAB1454E10 P0000 T01110056